Time;durP1;ratioP1;P1;durP2;ratioP2;P2;SDS_P1;SDS_P2;PMS_P1;PMS_P2;Temp;Humidity;BMP_temperature;BMP_pressure;BME280_temperature;BME280_humidity;BME280_pressure;Samples;Min_cycle;Max_cycle;Signal;HPM_P1;HPM_P2
2022/05/15 00:01:42;;;;;;;375.52;102.68;;;;;;;;;;5054423;28;20536;-72
2022/05/15 00:04:10;;;;;;;386.65;113.78;;;;;;;;;;5090157;28;20202;-72
2022/05/15 00:06:37;;;;;;;375.58;112.65;;;;;;;;;;5096624;28;20544;-72
2022/05/15 00:09:07;;;;;;;379.45;105.78;;;;;;;;;;5091665;28;20204;-72
2022/05/15 00:11:42;;;;;;;388.88;125.50;;;;;;;;;;5081950;28;20283;-72
2022/05/15 00:14:11;;;;;;;381.73;111.53;;;;;;;;;;5078217;28;20260;-72
2022/05/15 00:16:39;;;;;;;377.08;108.97;;;;;;;;;;5096112;28;20209;-71
2022/05/15 00:19:08;;;;;;;390.25;105.72;;;;;;;;;;5096453;28;20233;-72
2022/05/15 00:21:39;;;;;;;369.58;118.65;;;;;;;;;;5095557;28;20206;-69
2022/05/15 00:24:08;;;;;;;371.27;98.25;;;;;;;;;;5095719;28;20209;-70
2022/05/15 00:26:36;;;;;;;374.92;103.90;;;;;;;;;;5091079;28;20194;-72
2022/05/15 00:29:04;;;;;;;375.70;103.70;;;;;;;;;;5076302;28;20204;-71
2022/05/15 00:31:33;;;;;;;383.45;110.47;;;;;;;;;;5075683;28;20202;-72
2022/05/15 00:34:01;;;;;;;378.23;104.88;;;;;;;;;;5075612;28;20613;-72
2022/05/15 00:36:28;;;;;;;380.17;103.20;;;;;;;;;;5075958;28;20541;-72
2022/05/15 00:38:58;;;;;;;375.40;102.50;;;;;;;;;;5075708;28;20222;-72
2022/05/15 00:41:25;;;;;;;382.58;107.30;;;;;;;;;;5075839;28;20206;-72
2022/05/15 00:43:54;;;;;;;372.05;100.95;;;;;;;;;;5075983;28;20236;-72
2022/05/15 00:46:23;;;;;;;377.13;100.63;;;;;;;;;;5096067;28;20202;-72
2022/05/15 00:48:53;;;;;;;372.10;101.10;;;;;;;;;;5095907;28;20694;-72
2022/05/15 00:51:31;;;;;;;364.60;94.78;;;;;;;;;;5095687;28;20206;-72
2022/05/15 00:54:02;;;;;;;375.42;99.28;;;;;;;;;;5087564;28;20194;-72
2022/05/15 00:56:30;;;;;;;374.00;99.85;;;;;;;;;;5079203;28;20198;-72
2022/05/15 00:59:00;;;;;;;363.52;91.88;;;;;;;;;;5084032;28;20237;-71
2022/05/15 01:01:28;;;;;;;372.48;98.93;;;;;;;;;;5093706;28;20552;-72
2022/05/15 01:04:00;;;;;;;379.85;106.28;;;;;;;;;;5091020;28;20194;-73
2022/05/15 01:06:27;;;;;;;371.23;99.78;;;;;;;;;;5085832;28;20206;-71
2022/05/15 01:08:55;;;;;;;374.63;99.15;;;;;;;;;;5075393;28;20289;-72
2022/05/15 01:11:24;;;;;;;373.33;97.53;;;;;;;;;;5092844;28;20205;-71
2022/05/15 01:13:53;;;;;;;377.42;97.05;;;;;;;;;;5095914;28;20209;-71
2022/05/15 01:16:22;;;;;;;369.70;98.53;;;;;;;;;;5095503;28;20497;-72
2022/05/15 01:18:50;;;;;;;363.92;89.20;;;;;;;;;;5095962;28;20296;-72
2022/05/15 01:21:24;;;;;;;362.08;91.30;;;;;;;;;;5095843;28;20221;-72
2022/05/15 01:23:52;;;;;;;357.80;89.22;;;;;;;;;;5075428;28;20289;-71
2022/05/15 01:26:20;;;;;;;357.00;88.85;;;;;;;;;;5075222;28;20487;-71
2022/05/15 01:28:48;;;;;;;367.40;92.70;;;;;;;;;;5075124;28;20289;-71
2022/05/15 01:31:16;;;;;;;372.75;95.32;;;;;;;;;;5075191;28;20268;-72
2022/05/15 01:33:47;;;;;;;366.33;93.03;;;;;;;;;;5075294;28;20209;-72
2022/05/15 01:36:18;;;;;;;364.85;92.70;;;;;;;;;;5075266;28;20213;-72
2022/05/15 01:38:47;;;;;;;371.98;101.95;;;;;;;;;;5078297;28;20276;-73
2022/05/15 01:41:16;;;;;;;364.50;93.28;;;;;;;;;;5079279;28;20210;-73
2022/05/15 01:43:46;;;;;;;356.95;89.07;;;;;;;;;;5079071;28;20483;-72
2022/05/15 01:46:17;;;;;;;363.50;89.90;;;;;;;;;;5078633;28;20495;-72
2022/05/15 01:48:45;;;;;;;377.95;97.10;;;;;;;;;;5078568;28;20220;-72
2022/05/15 01:51:13;;;;;;;364.42;97.43;;;;;;;;;;5078433;28;20290;-72
2022/05/15 01:53:40;;;;;;;367.02;97.35;;;;;;;;;;5078755;28;20238;-72
2022/05/15 01:56:10;;;;;;;366.02;101.90;;;;;;;;;;5078105;28;20617;-72
2022/05/15 01:58:37;;;;;;;362.83;98.30;;;;;;;;;;5083494;28;20194;-72
2022/05/15 02:01:05;;;;;;;363.98;88.78;;;;;;;;;;5098783;28;20229;-72
2022/05/15 02:03:33;;;;;;;359.90;91.32;;;;;;;;;;5098510;28;20216;-72
2022/05/15 02:06:01;;;;;;;365.85;98.90;;;;;;;;;;5090783;28;20619;-72
2022/05/15 02:08:31;;;;;;;369.17;97.78;;;;;;;;;;5078740;28;20545;-72
2022/05/15 02:10:59;;;;;;;372.10;98.57;;;;;;;;;;5087895;28;20197;-72
2022/05/15 02:13:29;;;;;;;369.27;97.35;;;;;;;;;;5098371;28;20205;-72
2022/05/15 02:15:56;;;;;;;377.52;100.00;;;;;;;;;;5098418;28;20578;-72
2022/05/15 02:18:24;;;;;;;373.17;96.65;;;;;;;;;;5098621;28;20202;-72
2022/05/15 02:20:54;;;;;;;368.45;94.95;;;;;;;;;;5098630;28;20224;-72
2022/05/15 02:23:22;;;;;;;357.38;92.18;;;;;;;;;;5085977;28;20477;-72
2022/05/15 02:25:56;;;;;;;365.75;92.45;;;;;;;;;;5078208;28;20203;-72
2022/05/15 02:28:23;;;;;;;376.98;100.88;;;;;;;;;;5077859;28;20297;-72
2022/05/15 02:30:52;;;;;;;362.83;91.07;;;;;;;;;;5078010;28;20206;-72
2022/05/15 02:33:28;;;;;;;361.52;88.70;;;;;;;;;;5078111;28;20240;-71
2022/05/15 02:35:55;;;;;;;366.50;92.97;;;;;;;;;;5077891;28;20263;-72
2022/05/15 02:38:24;;;;;;;363.88;91.60;;;;;;;;;;5078109;28;20237;-71
2022/05/15 02:40:54;;;;;;;363.42;89.25;;;;;;;;;;5077384;28;20226;-71
2022/05/15 02:43:22;;;;;;;364.08;89.18;;;;;;;;;;5077998;28;20227;-71
2022/05/15 02:45:50;;;;;;;373.08;93.85;;;;;;;;;;5077866;28;20202;-72
2022/05/15 02:51:04;;;;;;;363.02;89.05;;;;;;;;;;5077009;28;20198;-72
2022/05/15 02:53:32;;;;;;;369.65;99.70;;;;;;;;;;5077783;28;20586;-71
2022/05/15 02:56:00;;;;;;;361.05;88.60;;;;;;;;;;5077664;28;20293;-72
2022/05/15 02:58:29;;;;;;;363.60;88.68;;;;;;;;;;5078188;28;20451;-72
2022/05/15 03:01:04;;;;;;;364.90;96.28;;;;;;;;;;5097650;28;20328;-72
2022/05/15 03:03:34;;;;;;;361.50;88.90;;;;;;;;;;5097671;28;20631;-72
2022/05/15 03:06:01;;;;;;;359.58;86.10;;;;;;;;;;5092897;28;20440;-72
2022/05/15 03:08:29;;;;;;;358.63;85.35;;;;;;;;;;5077393;28;20493;-72
2022/05/15 03:10:57;;;;;;;363.23;86.45;;;;;;;;;;5083348;28;20189;-71
2022/05/15 03:13:24;;;;;;;370.45;93.13;;;;;;;;;;5097200;28;20493;-72
2022/05/15 03:15:52;;;;;;;353.23;85.57;;;;;;;;;;5097561;28;20532;-72
2022/05/15 03:18:20;;;;;;;370.25;92.32;;;;;;;;;;5097192;28;20206;-72
2022/05/15 03:20:50;;;;;;;363.38;96.03;;;;;;;;;;5097434;28;20609;-72
2022/05/15 03:23:17;;;;;;;356.83;85.68;;;;;;;;;;5097008;28;20208;-72
2022/05/15 03:25:45;;;;;;;355.17;85.50;;;;;;;;;;5096413;28;20205;-70
2022/05/15 03:28:12;;;;;;;365.73;92.88;;;;;;;;;;5096838;28;20201;-72
2022/05/15 03:30:43;;;;;;;367.25;90.75;;;;;;;;;;5097156;28;20526;-72
2022/05/15 03:33:15;;;;;;;357.35;88.03;;;;;;;;;;5088887;28;20194;-72
2022/05/15 03:35:43;;;;;;;362.75;88.78;;;;;;;;;;5077147;28;20292;-72
2022/05/15 03:38:12;;;;;;;364.48;89.28;;;;;;;;;;5087628;28;20197;-73
2022/05/15 03:40:40;;;;;;;366.35;90.32;;;;;;;;;;5096738;28;20225;-72
2022/05/15 03:43:08;;;;;;;359.13;87.90;;;;;;;;;;5096814;28;20201;-71
2022/05/15 03:45:35;;;;;;;362.98;90.35;;;;;;;;;;5096122;28;20205;-72
2022/05/15 03:48:04;;;;;;;359.95;87.05;;;;;;;;;;5096761;28;20263;-72
2022/05/15 03:50:32;;;;;;;375.77;90.05;;;;;;;;;;5083477;28;20202;-72
2022/05/15 03:52:59;;;;;;;360.90;91.07;;;;;;;;;;5076482;28;20587;-72
2022/05/15 03:55:28;;;;;;;355.70;86.95;;;;;;;;;;5081285;28;20197;-72
2022/05/15 03:57:57;;;;;;;360.52;86.88;;;;;;;;;;5082047;28;20479;-71
2022/05/15 04:00:28;;;;;;;356.38;84.90;;;;;;;;;;5086165;28;20679;-71
2022/05/15 04:02:56;;;;;;;351.20;87.57;;;;;;;;;;5088081;28;20205;-72
2022/05/15 04:05:24;;;;;;;359.42;83.45;;;;;;;;;;5094082;28;20201;-71
2022/05/15 04:07:52;;;;;;;363.17;83.38;;;;;;;;;;5087639;28;20534;-72
2022/05/15 04:10:20;;;;;;;360.58;89.22;;;;;;;;;;5087733;28;20600;-72
2022/05/15 04:12:49;;;;;;;352.50;86.18;;;;;;;;;;5080478;28;20579;-71
2022/05/15 04:15:17;;;;;;;362.85;89.80;;;;;;;;;;5079046;28;20206;-71
2022/05/15 04:17:46;;;;;;;362.15;88.40;;;;;;;;;;5086701;28;20574;-72
2022/05/15 04:20:17;;;;;;;351.98;85.70;;;;;;;;;;5079511;28;20225;-72
2022/05/15 04:22:45;;;;;;;354.88;86.15;;;;;;;;;;5087231;28;20201;-72
2022/05/15 04:25:13;;;;;;;361.60;86.97;;;;;;;;;;5089546;28;20232;-72
2022/05/15 04:27:42;;;;;;;359.17;88.35;;;;;;;;;;5083578;28;20303;-74
2022/05/15 04:30:14;;;;;;;369.17;99.88;;;;;;;;;;5083998;28;20205;-71
2022/05/15 04:32:42;;;;;;;372.00;94.40;;;;;;;;;;5078203;28;20264;-71
2022/05/15 04:35:10;;;;;;;365.33;88.85;;;;;;;;;;5089388;28;20228;-72
2022/05/15 04:37:39;;;;;;;377.13;97.97;;;;;;;;;;5075815;28;20199;-71
2022/05/15 04:40:07;;;;;;;375.08;92.03;;;;;;;;;;5079765;28;20634;-72
2022/05/15 04:42:35;;;;;;;373.17;96.38;;;;;;;;;;5090694;28;20229;-72
2022/05/15 04:45:03;;;;;;;376.15;99.05;;;;;;;;;;5094206;28;20574;-72
2022/05/15 04:47:32;;;;;;;378.60;99.18;;;;;;;;;;5075787;28;20205;-72
2022/05/15 04:50:00;;;;;;;379.10;100.32;;;;;;;;;;5075806;28;20210;-71
2022/05/15 04:52:28;;;;;;;385.23;102.70;;;;;;;;;;5075358;28;20213;-72
2022/05/15 04:54:55;;;;;;;373.70;98.55;;;;;;;;;;5076080;28;20213;-72
2022/05/15 04:57:23;;;;;;;384.42;109.55;;;;;;;;;;5079024;28;20585;-72
2022/05/15 04:59:51;;;;;;;393.80;114.10;;;;;;;;;;5095612;28;20210;-72
2022/05/15 05:02:19;;;;;;;378.88;102.43;;;;;;;;;;5096227;28;20210;-72
2022/05/15 05:04:51;;;;;;;387.75;114.28;;;;;;;;;;5096196;28;20205;-72
2022/05/15 05:07:18;;;;;;;393.98;128.40;;;;;;;;;;5095726;28;20202;-72
2022/05/15 05:09:47;;;;;;;393.83;128.02;;;;;;;;;;5089788;28;20209;-73
2022/05/15 05:12:21;;;;;;;397.80;123.80;;;;;;;;;;5076031;28;20284;-72
2022/05/15 05:14:49;;;;;;;397.43;141.73;;;;;;;;;;5089578;28;20284;-72
2022/05/15 05:17:17;;;;;;;403.23;145.20;;;;;;;;;;5099615;28;20463;-73
2022/05/15 05:19:44;;;;;;;409.58;152.00;;;;;;;;;;5099328;28;20206;-72
2022/05/15 05:22:13;;;;;;;394.92;138.43;;;;;;;;;;5099425;28;20225;-70
2022/05/15 05:24:41;;;;;;;397.77;148.23;;;;;;;;;;5099818;28;20209;-71
2022/05/15 05:27:08;;;;;;;398.92;146.02;;;;;;;;;;5088000;28;20198;-72
2022/05/15 05:29:36;;;;;;;405.05;177.77;;;;;;;;;;5078408;28;20598;-72
2022/05/15 05:32:05;;;;;;;396.97;151.37;;;;;;;;;;5078618;28;20256;-71
2022/05/15 05:34:37;;;;;;;409.95;170.63;;;;;;;;;;5085070;28;20732;-74
2022/05/15 05:37:08;;;;;;;412.67;178.25;;;;;;;;;;5099652;28;20201;-72
2022/05/15 05:39:41;;;;;;;415.95;182.73;;;;;;;;;;5098933;28;20555;-72
2022/05/15 05:42:10;;;;;;;408.83;170.27;;;;;;;;;;5098883;28;20491;-72
2022/05/15 05:44:38;;;;;;;414.55;188.52;;;;;;;;;;5099020;28;20202;-72
2022/05/15 05:47:06;;;;;;;405.25;172.70;;;;;;;;;;5098990;28;20201;-71
2022/05/15 05:49:34;;;;;;;399.15;163.15;;;;;;;;;;5098735;28;20202;-72
2022/05/15 05:52:02;;;;;;;425.38;200.23;;;;;;;;;;5098896;28;20259;-72
2022/05/15 05:54:31;;;;;;;418.80;199.23;;;;;;;;;;5098554;28;20262;-72
2022/05/15 05:57:00;;;;;;;419.50;203.87;;;;;;;;;;5098351;28;20201;-72
2022/05/15 05:59:27;;;;;;;404.55;168.82;;;;;;;;;;5098260;28;20837;-71
2022/05/15 06:01:55;;;;;;;415.17;194.37;;;;;;;;;;5098139;28;20221;-72
2022/05/15 06:04:44;;;;;;;426.20;214.60;;;;;;;;;;5097862;28;20454;-72
2022/05/15 06:07:13;;;;;;;417.55;208.60;;;;;;;;;;5097845;28;20768;-72
2022/05/15 06:09:42;;;;;;;423.15;222.25;;;;;;;;;;5097992;28;20202;-71
2022/05/15 06:12:12;;;;;;;423.85;226.82;;;;;;;;;;5097756;28;20562;-72
2022/05/15 06:14:40;;;;;;;423.42;223.68;;;;;;;;;;5097875;28;20204;-72
2022/05/15 06:17:08;;;;;;;426.17;234.13;;;;;;;;;;5098447;28;20212;-72
2022/05/15 06:19:36;;;;;;;428.90;223.87;;;;;;;;;;5097069;28;20208;-72
2022/05/15 06:22:04;;;;;;;409.30;181.20;;;;;;;;;;5097174;28;20745;-71
2022/05/15 06:24:31;;;;;;;418.13;194.30;;;;;;;;;;5097115;28;20266;-71
2022/05/15 06:27:02;;;;;;;405.60;173.63;;;;;;;;;;5098181;28;20563;-71
2022/05/15 06:29:31;;;;;;;420.37;211.50;;;;;;;;;;5096955;28;20227;-72
2022/05/15 06:31:59;;;;;;;415.80;190.95;;;;;;;;;;5098329;28;20447;-72
2022/05/15 06:34:27;;;;;;;409.08;162.23;;;;;;;;;;5098591;28;20762;-72
2022/05/15 06:36:59;;;;;;;404.48;152.73;;;;;;;;;;5097577;28;20206;-72
2022/05/15 06:39:26;;;;;;;413.80;176.23;;;;;;;;;;5097460;28;20205;-72
2022/05/15 06:41:59;;;;;;;407.88;170.98;;;;;;;;;;5097887;28;20479;-72
2022/05/15 06:44:27;;;;;;;402.93;157.03;;;;;;;;;;5097700;28;20213;-72
2022/05/15 06:46:57;;;;;;;410.33;169.30;;;;;;;;;;5088577;28;20456;-72
2022/05/15 06:49:27;;;;;;;401.83;158.52;;;;;;;;;;5083373;28;20464;-72
2022/05/15 06:51:55;;;;;;;404.48;160.85;;;;;;;;;;5078176;28;20191;-72
2022/05/15 06:54:23;;;;;;;404.10;155.38;;;;;;;;;;5077953;28;20234;-72
2022/05/15 06:59:37;;;;;;;400.45;138.10;;;;;;;;;;5076708;28;20427;-72
2022/05/15 07:02:07;;;;;;;382.67;136.48;;;;;;;;;;5078373;28;20317;-72
2022/05/15 07:04:36;;;;;;;391.17;134.30;;;;;;;;;;5077457;28;20202;-72
2022/05/15 07:07:04;;;;;;;387.77;133.52;;;;;;;;;;5077297;28;20583;-72
2022/05/15 07:09:32;;;;;;;392.50;154.10;;;;;;;;;;5077110;28;20259;-72
2022/05/15 07:12:00;;;;;;;382.08;130.77;;;;;;;;;;5077108;28;20200;-72
2022/05/15 07:14:30;;;;;;;387.20;142.13;;;;;;;;;;5076700;28;20202;-72
2022/05/15 07:16:58;;;;;;;388.75;152.95;;;;;;;;;;5076940;28;20592;-71
2022/05/15 07:19:27;;;;;;;389.95;147.85;;;;;;;;;;5076699;28;20202;-72
2022/05/15 07:21:55;;;;;;;387.95;139.68;;;;;;;;;;5084220;28;20226;-72
2022/05/15 07:24:23;;;;;;;403.75;162.23;;;;;;;;;;5085252;28;20201;-72
2022/05/15 07:26:51;;;;;;;398.50;164.55;;;;;;;;;;5086848;28;20708;-72
2022/05/15 07:29:20;;;;;;;398.38;175.55;;;;;;;;;;5093360;28;20201;-72
2022/05/15 07:31:50;;;;;;;382.52;143.77;;;;;;;;;;5096306;28;20616;-72
2022/05/15 07:34:17;;;;;;;396.87;166.17;;;;;;;;;;5095581;28;20546;-72
2022/05/15 07:36:50;;;;;;;395.35;167.93;;;;;;;;;;5095755;28;20452;-72
2022/05/15 07:39:18;;;;;;;389.85;155.40;;;;;;;;;;5096607;28;20270;-73
2022/05/15 07:41:46;;;;;;;393.20;159.23;;;;;;;;;;5095909;28;20221;-72
2022/05/15 07:44:16;;;;;;;394.48;166.18;;;;;;;;;;5095696;28;20469;-72
2022/05/15 07:46:44;;;;;;;403.23;180.95;;;;;;;;;;5095300;28;20202;-71
2022/05/15 07:49:13;;;;;;;393.42;153.18;;;;;;;;;;5095248;28;20225;-71
2022/05/15 07:51:44;;;;;;;402.95;182.65;;;;;;;;;;5095460;28;20582;-71
2022/05/15 07:54:14;;;;;;;406.40;205.97;;;;;;;;;;5094787;28;20213;-71
2022/05/15 07:56:42;;;;;;;404.45;185.98;;;;;;;;;;5094889;28;20509;-72
2022/05/15 07:59:11;;;;;;;392.13;151.27;;;;;;;;;;5095152;28;20221;-72
2022/05/15 08:01:39;;;;;;;393.90;162.88;;;;;;;;;;5096295;28;20247;-73
2022/05/15 08:04:07;;;;;;;400.50;199.13;;;;;;;;;;5095950;28;20622;-71
2022/05/15 08:09:23;;;;;;;401.70;186.82;;;;;;;;;;5094826;28;20193;-72
2022/05/15 08:11:51;;;;;;;394.40;169.85;;;;;;;;;;5094851;28;20220;-71
2022/05/15 08:14:20;;;;;;;406.02;180.68;;;;;;;;;;5093954;28;20202;-72
2022/05/15 08:16:50;;;;;;;392.17;182.50;;;;;;;;;;5093641;28;20254;-72
2022/05/15 08:24:54;;;;;;;401.60;189.90;;;;;;;;;;5091742;28;20633;-71
2022/05/15 08:27:22;;;;;;;406.73;203.48;;;;;;;;;;5092925;28;20455;-71
2022/05/15 08:29:50;;;;;;;408.80;215.30;;;;;;;;;;5093611;28;20284;-72
2022/05/15 08:32:18;;;;;;;408.30;214.90;;;;;;;;;;5093280;28;20436;-72
2022/05/15 08:34:46;;;;;;;400.57;191.07;;;;;;;;;;5094677;28;20460;-72
2022/05/15 08:37:13;;;;;;;410.00;228.57;;;;;;;;;;5094668;28;20700;-72
2022/05/15 08:39:41;;;;;;;414.83;237.27;;;;;;;;;;5094697;28;20209;-71
2022/05/15 08:42:22;;;;;;;407.17;210.80;;;;;;;;;;5094352;28;20570;-70
2022/05/15 08:44:52;;;;;;;414.70;245.38;;;;;;;;;;5092991;28;20202;-72
2022/05/15 08:47:24;;;;;;;416.13;242.97;;;;;;;;;;5094848;28;20194;-73
2022/05/15 08:50:02;;;;;;;416.80;253.00;;;;;;;;;;5089922;28;20475;-72
2022/05/15 08:52:32;;;;;;;415.77;238.97;;;;;;;;;;5095681;28;20531;-73
2022/05/15 08:55:06;;;;;;;406.20;215.43;;;;;;;;;;5097454;28;20860;-73
2022/05/15 08:57:41;;;;;;;403.60;215.50;;;;;;;;;;5099111;28;20467;-71
2022/05/15 09:00:12;;;;;;;409.20;219.87;;;;;;;;;;5099000;28;20520;-71
2022/05/15 09:02:41;;;;;;;413.40;246.50;;;;;;;;;;5097621;28;20866;-72
2022/05/15 09:05:11;;;;;;;402.90;204.40;;;;;;;;;;5097920;28;20447;-73
2022/05/15 09:07:48;;;;;;;416.87;247.53;;;;;;;;;;5097548;28;20739;-72
2022/05/15 09:10:23;;;;;;;412.07;228.63;;;;;;;;;;5096458;28;20462;-73
2022/05/15 09:13:13;;;;;;;412.60;246.50;;;;;;;;;;5098525;28;20548;-73
2022/05/15 09:15:51;;;;;;;412.63;235.13;;;;;;;;;;5097069;28;20521;-72
2022/05/15 09:18:21;;;;;;;414.67;242.93;;;;;;;;;;5095914;28;20451;-72
2022/05/15 09:20:57;;;;;;;411.27;235.80;;;;;;;;;;5098313;28;20732;-72
2022/05/15 09:23:26;;;;;;;416.70;242.30;;;;;;;;;;5098082;28;20483;-72
2022/05/15 09:25:58;;;;;;;415.27;243.90;;;;;;;;;;5098102;28;20550;-71
2022/05/15 09:28:43;;;;;;;417.33;254.60;;;;;;;;;;5097573;28;20865;-71
2022/05/15 09:31:21;;;;;;;410.70;232.02;;;;;;;;;;5097695;28;20832;-72
2022/05/15 09:33:51;;;;;;;417.63;261.30;;;;;;;;;;5096146;28;20613;-72
2022/05/15 09:36:26;;;;;;;415.90;253.30;;;;;;;;;;5097430;28;20755;-72
2022/05/15 09:39:17;;;;;;;407.80;228.80;;;;;;;;;;5097633;28;20832;-73
2022/05/15 09:44:36;;;;;;;421.33;261.63;;;;;;;;;;5082627;28;20495;-73
2022/05/15 09:47:05;;;;;;;405.37;213.80;;;;;;;;;;5083029;28;21477;-73
2022/05/15 09:49:34;;;;;;;417.57;262.53;;;;;;;;;;5077758;28;20465;-74
2022/05/15 09:52:04;;;;;;;411.57;229.90;;;;;;;;;;5077723;28;20532;-73
2022/05/15 09:54:43;;;;;;;420.67;265.90;;;;;;;;;;5077126;28;20472;-73
2022/05/15 09:57:24;;;;;;;422.23;263.60;;;;;;;;;;5076462;28;20472;-73
2022/05/15 10:00:02;;;;;;;419.47;277.93;;;;;;;;;;5076238;28;20458;-73
2022/05/15 10:02:39;;;;;;;417.37;253.73;;;;;;;;;;5075354;28;20494;-73
2022/05/15 10:05:13;;;;;;;420.50;267.70;;;;;;;;;;5075620;28;20533;-72
2022/05/15 10:07:44;;;;;;;412.00;238.70;;;;;;;;;;5075949;28;20589;-73
2022/05/15 10:10:21;;;;;;;407.23;225.47;;;;;;;;;;5075315;28;20452;-73
2022/05/15 10:12:51;;;;;;;415.63;248.13;;;;;;;;;;5076963;28;20555;-73
2022/05/15 10:15:21;;;;;;;423.33;276.70;;;;;;;;;;5076371;28;20830;-73
2022/05/15 10:17:55;;;;;;;423.60;280.03;;;;;;;;;;5076310;28;20467;-73
2022/05/15 10:20:24;;;;;;;419.63;259.30;;;;;;;;;;5076111;28;20503;-73
2022/05/15 10:22:57;;;;;;;422.77;277.87;;;;;;;;;;5074821;28;20485;-73
2022/05/15 10:25:29;;;;;;;413.00;254.93;;;;;;;;;;5074866;28;20467;-73
2022/05/15 10:28:05;;;;;;;420.07;272.13;;;;;;;;;;5074900;28;20476;-73
2022/05/15 10:30:37;;;;;;;420.37;262.17;;;;;;;;;;5075143;28;20609;-72
2022/05/15 10:33:09;;;;;;;427.70;307.83;;;;;;;;;;5075230;28;20456;-72
2022/05/15 10:35:41;;;;;;;425.40;310.40;;;;;;;;;;5076578;28;20447;-72
2022/05/15 10:38:14;;;;;;;426.00;306.70;;;;;;;;;;5075866;28;20464;-73
2022/05/15 10:40:45;;;;;;;421.53;277.90;;;;;;;;;;5076687;28;20440;-73
2022/05/15 10:43:21;;;;;;;430.37;319.50;;;;;;;;;;5076039;28;20492;-72
2022/05/15 10:45:55;;;;;;;428.57;318.03;;;;;;;;;;5058025;28;20499;-73
2022/05/15 10:48:38;;;;;;;433.37;319.97;;;;;;;;;;5077938;28;20551;-72
2022/05/15 10:51:10;;;;;;;436.57;338.73;;;;;;;;;;5088201;28;20470;-74
2022/05/15 10:59:23;;;;;;;421.10;285.47;;;;;;;;;;5039735;28;20436;-73
2022/05/15 11:01:55;;;;;;;437.53;353.27;;;;;;;;;;5074041;28;20539;-73
2022/05/15 11:04:28;;;;;;;441.67;348.10;;;;;;;;;;5074139;28;20464;-73
2022/05/15 11:07:03;;;;;;;424.43;283.83;;;;;;;;;;5084718;28;20448;-74
2022/05/15 11:09:45;;;;;;;437.50;338.47;;;;;;;;;;5093013;28;20470;-73
2022/05/15 11:12:25;;;;;;;430.17;304.13;;;;;;;;;;5093830;28;20461;-73
2022/05/15 11:14:59;;;;;;;481.63;428.40;;;;;;;;;;5093586;28;20462;-73
2022/05/15 11:17:43;;;;;;;594.80;538.07;;;;;;;;;;5093566;28;20469;-71
2022/05/15 11:20:19;;;;;;;3.57;1.13;;;;;;;;;;5094006;28;20451;-73
2022/05/15 11:22:50;;;;;;;3.80;1.87;;;;;;;;;;5091991;28;20477;-74
2022/05/15 11:25:20;;;;;;;428.20;306.37;;;;;;;;;;5094422;28;20462;-73
2022/05/15 11:31:03;;;;;;;140.20;130.90;;;;;;;;;;5016367;28;20442;-71
2022/05/15 11:33:50;;;;;;;439.33;328.90;;;;;;;;;;5088644;28;20455;-72
2022/05/15 11:36:29;;;;;;;233.67;206.70;;;;;;;;;;5084078;28;20466;-71
2022/05/15 11:39:02;;;;;;;14.63;7.20;;;;;;;;;;5091593;28;20505;-72
2022/05/15 11:41:39;;;;;;;1.80;0.70;;;;;;;;;;5089939;28;20936;-73
2022/05/15 11:44:10;;;;;;;3.13;1.20;;;;;;;;;;5081641;28;20480;-72
2022/05/15 11:47:01;;;;;;;35.50;31.40;;;;;;;;;;5079573;28;20503;-73
2022/05/15 11:49:43;;;;;;;1.73;0.67;;;;;;;;;;5068122;28;20471;-72
2022/05/15 11:52:16;;;;;;;1.60;0.93;;;;;;;;;;5088513;28;20544;-72
2022/05/15 11:54:45;;;;;;;3.40;1.27;;;;;;;;;;5094339;28;20444;-73
2022/05/15 11:57:14;;;;;;;4.27;1.33;;;;;;;;;;5085891;28;20452;-72
2022/05/15 11:59:50;;;;;;;4.13;1.00;;;;;;;;;;5083786;28;20451;-72
2022/05/15 12:02:33;;;;;;;5.07;1.27;;;;;;;;;;5083339;28;20482;-74
2022/05/15 12:07:56;;;;;;;3.30;1.27;;;;;;;;;;5072770;28;20547;-74
2022/05/15 12:10:39;;;;;;;2.17;1.07;;;;;;;;;;5091776;28;20459;-73
2022/05/15 12:13:11;;;;;;;3.33;0.90;;;;;;;;;;5077157;28;20468;-73
2022/05/15 12:15:43;;;;;;;2.50;0.90;;;;;;;;;;5077422;28;20824;-73
2022/05/15 12:18:25;;;;;;;2.13;1.10;;;;;;;;;;5085599;28;20475;-74
2022/05/15 12:20:54;;;;;;;2.70;0.83;;;;;;;;;;5074067;28;20737;-73
2022/05/15 12:23:27;;;;;;;3.10;0.90;;;;;;;;;;5093459;28;20540;-73
2022/05/15 12:26:00;;;;;;;2.73;1.10;;;;;;;;;;5081016;28;20468;-73
2022/05/15 12:31:20;;;;;;;2.90;0.90;;;;;;;;;;5076996;28;20754;-73
2022/05/15 12:33:50;;;;;;;4.03;1.67;;;;;;;;;;5091481;28;20477;-72
2022/05/15 12:36:21;;;;;;;4.90;2.27;;;;;;;;;;5093697;28;20786;-74
2022/05/15 12:38:53;;;;;;;3.33;1.20;;;;;;;;;;5079316;28;20470;-73
2022/05/15 12:41:23;;;;;;;3.73;1.10;;;;;;;;;;5080774;28;20542;-72
2022/05/15 12:43:53;;;;;;;3.90;1.00;;;;;;;;;;5082543;28;20488;-73
2022/05/15 12:46:25;;;;;;;2.90;0.90;;;;;;;;;;5086746;28;20451;-73
2022/05/15 12:48:53;;;;;;;2.13;0.80;;;;;;;;;;5095841;28;20459;-74
2022/05/15 12:51:28;;;;;;;5.70;3.23;;;;;;;;;;5113473;28;20447;-74
2022/05/15 12:53:56;;;;;;;4.07;1.60;;;;;;;;;;5114059;28;20885;-73
2022/05/15 12:56:25;;;;;;;3.10;1.20;;;;;;;;;;5114568;28;20446;-73
2022/05/15 12:59:18;;;;;;;3.00;1.20;;;;;;;;;;5113925;28;20467;-73
2022/05/15 13:01:49;;;;;;;2.07;0.97;;;;;;;;;;5073479;28;20456;-74
2022/05/15 13:04:25;;;;;;;4.20;1.13;;;;;;;;;;5070080;28;20472;-74
2022/05/15 13:06:58;;;;;;;2.47;0.90;;;;;;;;;;5085297;28;20903;-73
2022/05/15 13:09:27;;;;;;;4.10;1.20;;;;;;;;;;5100364;28;20470;-73
2022/05/15 13:11:57;;;;;;;4.17;1.50;;;;;;;;;;5080165;28;20472;-73
2022/05/15 13:14:30;;;;;;;3.60;1.80;;;;;;;;;;5074694;28;21094;-73
2022/05/15 13:17:05;;;;;;;3.00;0.93;;;;;;;;;;5083167;28;20805;-73
2022/05/15 13:19:38;;;;;;;4.07;2.07;;;;;;;;;;5075760;28;20455;-74
2022/05/15 13:22:15;;;;;;;3.60;1.30;;;;;;;;;;5086496;28;20559;-74
2022/05/15 13:24:47;;;;;;;4.13;1.53;;;;;;;;;;5080064;28;21027;-74
2022/05/15 13:27:31;;;;;;;3.03;1.23;;;;;;;;;;5076212;28;20542;-74
2022/05/15 13:29:59;;;;;;;3.83;1.17;;;;;;;;;;5064566;28;20514;-73
2022/05/15 13:32:28;;;;;;;2.93;1.07;;;;;;;;;;5081388;28;20548;-73
2022/05/15 13:37:51;;;;;;;2.00;1.00;;;;;;;;;;5087874;28;20448;-73
2022/05/15 13:43:20;;;;;;;3.20;1.00;;;;;;;;;;5088549;28;20680;-73
2022/05/15 13:45:50;;;;;;;2.30;1.37;;;;;;;;;;5083656;28;20455;-73
2022/05/15 13:48:21;;;;;;;3.03;1.33;;;;;;;;;;5085090;28;20496;-74
2022/05/15 13:50:50;;;;;;;4.03;2.03;;;;;;;;;;5076457;28;20860;-73
2022/05/15 13:53:25;;;;;;;1.73;0.80;;;;;;;;;;5098836;28;20446;-74
2022/05/15 13:55:55;;;;;;;2.67;0.70;;;;;;;;;;5076636;28;20443;-73
2022/05/15 13:58:23;;;;;;;3.70;1.13;;;;;;;;;;5084949;28;20550;-74
2022/05/15 14:01:07;;;;;;;2.20;1.03;;;;;;;;;;5097315;28;20697;-74
2022/05/15 14:03:40;;;;;;;2.00;1.10;;;;;;;;;;5090766;28;20919;-74
2022/05/15 14:06:32;;;;;;;4.57;1.20;;;;;;;;;;5097002;28;20852;-74
2022/05/15 14:09:15;;;;;;;5.10;3.00;;;;;;;;;;5095008;28;20455;-73
2022/05/15 14:12:01;;;;;;;5.73;1.83;;;;;;;;;;5078393;28;20472;-72
2022/05/15 14:14:46;;;;;;;2.10;1.00;;;;;;;;;;5079937;28;20454;-73
2022/05/15 14:17:15;;;;;;;3.50;2.20;;;;;;;;;;5079180;28;20467;-73
2022/05/15 14:19:57;;;;;;;5.50;3.77;;;;;;;;;;5077012;28;20453;-73
2022/05/15 14:22:32;;;;;;;7.40;2.50;;;;;;;;;;5076628;28;20474;-72
2022/05/15 14:25:02;;;;;;;2.43;0.70;;;;;;;;;;5083528;28;20510;-73
2022/05/15 14:27:29;;;;;;;3.37;0.80;;;;;;;;;;5094464;28;20463;-73
2022/05/15 14:29:57;;;;;;;12.13;2.23;;;;;;;;;;5094633;28;20471;-73
2022/05/15 14:32:27;;;;;;;18.30;17.40;;;;;;;;;;5094754;28;20459;-72
2022/05/15 14:34:56;;;;;;;21.83;20.50;;;;;;;;;;5095430;28;20664;-73
2022/05/15 14:37:24;;;;;;;425.63;361.23;;;;;;;;;;5095460;28;20583;-73
2022/05/15 14:39:52;;;;;;;474.47;431.37;;;;;;;;;;5091416;28;20475;-73
2022/05/15 14:42:24;;;;;;;527.33;487.47;;;;;;;;;;5087640;28;20473;-73
2022/05/15 14:44:57;;;;;;;2.10;0.97;;;;;;;;;;5085716;28;20475;-73
2022/05/15 14:50:23;;;;;;;1.80;1.00;;;;;;;;;;5095242;28;20451;-73
2022/05/15 14:52:55;;;;;;;3.23;0.90;;;;;;;;;;5096443;28;20505;-73
2022/05/15 14:58:14;;;;;;;7.23;3.77;;;;;;;;;;5096431;28;20424;-73
2022/05/15 15:00:42;;;;;;;92.80;89.10;;;;;;;;;;5096013;28;20459;-72
2022/05/15 15:03:13;;;;;;;478.97;453.00;;;;;;;;;;5096587;28;20544;-73
2022/05/15 15:05:47;;;;;;;488.90;438.07;;;;;;;;;;5086103;28;20579;-73
2022/05/15 15:08:16;;;;;;;558.43;505.63;;;;;;;;;;5074520;28;20752;-72
2022/05/15 15:10:46;;;;;;;524.03;472.13;;;;;;;;;;5074794;28;20499;-73